Time;durP1;ratioP1;P1;durP2;ratioP2;P2;SDS_P1;SDS_P2;PMS_P1;PMS_P2;Temp;Humidity;BMP_temperature;BMP_pressure;BME280_temperature;BME280_humidity;BME280_pressure;Samples;Min_cycle;Max_cycle;Signal;HPM_P1;HPM_P2
2022/09/22 00:01:10;;;;;;;9.78;6.22;;;;;;;6.82;100.00;99853.50;1704419;84;22232;-65
2022/09/22 00:03:42;;;;;;;9.00;6.87;;;;;;;6.81;100.00;99858.34;1704674;84;21053;-66
2022/09/22 00:06:12;;;;;;;8.73;5.70;;;;;;;6.80;100.00;99851.37;1704551;84;21065;-66
2022/09/22 00:08:42;;;;;;;8.45;5.78;;;;;;;6.81;100.00;99854.84;1704509;83;21137;-67
2022/09/22 00:11:17;;;;;;;7.70;5.92;;;;;;;6.81;100.00;99851.80;1716285;83;21053;-66
2022/09/22 00:13:49;;;;;;;9.38;5.95;;;;;;;6.84;100.00;99849.55;1718134;83;21053;-68
2022/09/22 00:16:21;;;;;;;11.10;6.10;;;;;;;6.87;100.00;99859.47;1718172;83;21041;-68
2022/09/22 00:18:48;;;;;;;9.53;6.95;;;;;;;6.91;100.00;99855.02;1718316;83;21551;-66
2022/09/22 00:21:21;;;;;;;12.37;7.70;;;;;;;6.94;100.00;99849.23;1718573;83;21127;-66
2022/09/22 00:23:46;;;;;;;12.18;8.15;;;;;;;6.99;100.00;99850.88;1716939;83;21025;-66
2022/09/22 00:26:17;;;;;;;12.95;8.98;;;;;;;7.02;100.00;99849.52;1718215;83;21081;-66
2022/09/22 00:28:45;;;;;;;11.60;8.78;;;;;;;7.07;100.00;99853.71;1718505;83;21081;-67
2022/09/22 00:31:16;;;;;;;11.38;9.03;;;;;;;7.14;100.00;99862.27;1718527;83;21030;-67
2022/09/22 00:33:45;;;;;;;14.47;8.80;;;;;;;7.17;100.00;99854.31;1718511;83;23137;-65
2022/09/22 00:36:12;;;;;;;12.37;8.73;;;;;;;7.22;100.00;99849.80;1718460;83;21033;-67
2022/09/22 00:38:40;;;;;;;10.85;7.80;;;;;;;7.27;100.00;99852.29;1718353;83;21041;-68
2022/09/22 00:41:09;;;;;;;10.85;7.15;;;;;;;7.29;100.00;99852.69;1718280;83;21116;-66
2022/09/22 00:43:37;;;;;;;8.20;6.50;;;;;;;7.32;100.00;99851.28;1718260;83;21065;-67
2022/09/22 00:46:08;;;;;;;7.83;6.50;;;;;;;7.34;100.00;99857.34;1718503;83;21241;-67
2022/09/22 00:48:38;;;;;;;10.55;7.83;;;;;;;7.37;100.00;99857.70;1718002;83;21585;-66
2022/09/22 00:51:06;;;;;;;13.22;8.33;;;;;;;7.37;100.00;99853.77;1718446;83;21041;-67
2022/09/22 00:53:33;;;;;;;11.68;8.45;;;;;;;7.40;100.00;99856.75;1691787;83;21065;-65
2022/09/22 00:56:11;;;;;;;11.35;7.65;;;;;;;7.43;100.00;99854.03;1741225;82;21054;-64
2022/09/22 00:58:43;;;;;;;12.63;9.98;;;;;;;7.44;100.00;99854.45;1748039;82;21259;-65
2022/09/22 01:01:10;;;;;;;15.75;10.55;;;;;;;7.44;100.00;99853.14;1748139;82;21112;-66
2022/09/22 01:03:38;;;;;;;13.28;9.50;;;;;;;7.46;100.00;99857.89;1748000;82;21072;-64
2022/09/22 01:06:08;;;;;;;17.77;10.43;;;;;;;7.48;100.00;99857.41;1747967;82;21025;-65
2022/09/22 01:08:36;;;;;;;15.10;11.00;;;;;;;7.50;100.00;99854.26;1748096;82;21065;-66
2022/09/22 01:11:03;;;;;;;16.65;10.85;;;;;;;7.52;100.00;99860.31;1706501;82;21163;-66
2022/09/22 01:13:52;;;;;;;16.15;10.63;;;;;;;7.55;100.00;99855.01;1742233;82;21073;-66
2022/09/22 01:16:54;;;;;;;11.75;8.68;;;;;;;7.59;100.00;99853.99;1742291;82;21062;-66
2022/09/22 01:19:39;;;;;;;;;;;;;;;7.59;100.00;99846.13;1744910;82;21041;-66
2022/09/22 01:22:35;;;;;;;12.55;8.60;;;;;;;7.61;100.00;99846.95;1742331;82;20234;-66
2022/09/22 01:25:59;;;;;;;12.40;9.63;;;;;;;7.65;100.00;99846.42;1741927;82;21122;-66
2022/09/22 01:29:03;;;;;;;10.50;7.37;;;;;;;7.66;100.00;99850.31;1742009;82;21058;-66
2022/09/22 01:31:54;;;;;;;16.93;9.95;;;;;;;7.69;100.00;99845.43;1724426;82;21695;-66
2022/09/22 01:34:30;;;;;;;14.47;9.03;;;;;;;7.71;100.00;99851.03;1742525;82;21092;-66
2022/09/22 01:37:02;;;;;;;12.28;9.00;;;;;;;7.72;100.00;99847.48;1742688;82;21081;-65
2022/09/22 01:39:49;;;;;;;13.00;7.87;;;;;;;7.72;100.00;99844.87;1742025;82;21746;-66
2022/09/22 01:42:27;;;;;;;16.67;10.48;;;;;;;7.75;100.00;99851.78;1713013;82;21037;-65
2022/09/22 01:45:09;;;;;;;13.50;7.85;;;;;;;7.75;100.00;99850.05;1741966;82;21081;-66
2022/09/22 01:47:48;;;;;;;15.20;8.83;;;;;;;7.76;100.00;99853.05;1742415;82;21547;-66
2022/09/22 01:50:31;;;;;;;16.10;9.70;;;;;;;7.78;100.00;99848.63;1742413;82;21576;-68
2022/09/22 01:53:01;;;;;;;13.28;9.85;;;;;;;7.80;100.00;99849.02;1742414;82;21028;-66
2022/09/22 01:55:37;;;;;;;14.53;10.13;;;;;;;7.82;100.00;99855.08;1726498;82;21067;-66
2022/09/22 01:58:11;;;;;;;14.40;9.85;;;;;;;7.82;100.00;99843.28;1712825;83;21034;-66
2022/09/22 02:00:43;;;;;;;13.38;9.80;;;;;;;7.82;100.00;99848.53;1720732;82;21562;-66
2022/09/22 02:03:22;;;;;;;11.95;8.10;;;;;;;7.86;100.00;99848.84;1741630;82;21045;-65
2022/09/22 02:05:56;;;;;;;18.32;10.10;;;;;;;7.87;100.00;99847.95;1742294;82;21176;-66
2022/09/22 02:08:28;;;;;;;12.78;9.60;;;;;;;7.90;100.00;99847.86;1742082;82;21526;-67
2022/09/22 02:10:57;;;;;;;17.35;10.23;;;;;;;7.91;100.00;99848.25;1745383;81;21015;-66
2022/09/22 02:13:24;;;;;;;15.72;10.63;;;;;;;7.93;100.00;99839.88;1748454;82;21108;-66
2022/09/22 02:16:00;;;;;;;15.72;10.78;;;;;;;7.95;100.00;99844.17;1720846;82;21535;-65
2022/09/22 02:19:01;;;;;;;15.35;10.80;;;;;;;7.97;100.00;99841.52;1722846;82;22077;-67
2022/09/22 02:21:29;;;;;;;17.07;9.80;;;;;;;7.97;100.00;99838.89;1748218;81;21085;-66
2022/09/22 02:23:55;;;;;;;18.17;10.80;;;;;;;7.98;100.00;99833.61;1748280;81;21014;-67
2022/09/22 02:26:25;;;;;;;18.48;10.43;;;;;;;8.02;100.00;99836.98;1748255;82;21009;-67
2022/09/22 02:28:55;;;;;;;14.35;9.83;;;;;;;8.05;100.00;99836.91;1748544;82;21018;-66
2022/09/22 02:31:22;;;;;;;14.20;9.75;;;;;;;8.05;100.00;99836.91;1748551;82;21138;-66
2022/09/22 02:33:50;;;;;;;13.25;8.30;;;;;;;8.06;100.00;99841.23;1748201;81;22079;-66
2022/09/22 02:36:42;;;;;;;16.85;9.30;;;;;;;8.08;100.00;99834.17;1748191;82;21095;-66
2022/09/22 02:39:30;;;;;;;15.28;10.25;;;;;;;8.10;100.00;99834.98;1713299;82;21093;-67
2022/09/22 02:42:24;;;;;;;17.02;10.58;;;;;;;8.11;100.00;99832.75;1748079;81;21037;-68
2022/09/22 02:45:02;;;;;;;16.87;9.68;;;;;;;8.10;100.00;99833.67;1748217;81;21521;-67
2022/09/22 02:47:47;;;;;;;19.02;9.73;;;;;;;8.12;100.00;99832.29;1748072;82;21097;-67
2022/09/22 02:50:16;;;;;;;9.75;7.25;;;;;;;8.13;100.00;99841.44;1748283;82;21482;-67
2022/09/22 02:52:43;;;;;;;13.58;9.95;;;;;;;8.14;100.00;99836.61;1720700;82;21070;-66
2022/09/22 02:55:10;;;;;;;17.15;9.35;;;;;;;8.16;100.00;99837.39;1735670;82;21029;-66
2022/09/22 02:57:36;;;;;;;13.75;9.98;;;;;;;8.16;100.00;99834.77;1718493;83;21231;-67
2022/09/22 03:00:04;;;;;;;10.98;8.48;;;;;;;8.19;100.00;99833.38;1719003;82;21553;-67
2022/09/22 03:02:31;;;;;;;12.20;8.78;;;;;;;8.21;100.00;99842.49;1748090;82;21042;-66
2022/09/22 03:04:58;;;;;;;11.43;8.63;;;;;;;8.23;100.00;99843.30;1748714;81;21537;-66
2022/09/22 03:07:25;;;;;;;10.98;8.33;;;;;;;8.23;100.00;99843.77;1748290;82;21061;-66
2022/09/22 03:09:52;;;;;;;11.88;9.13;;;;;;;8.23;100.00;99839.83;1748415;81;21102;-67
2022/09/22 03:12:19;;;;;;;13.60;9.78;;;;;;;8.24;100.00;99847.66;1735023;81;21085;-67
2022/09/22 03:14:46;;;;;;;12.82;9.15;;;;;;;8.25;100.00;99850.67;1734408;82;21066;-65
2022/09/22 03:17:13;;;;;;;17.70;10.08;;;;;;;8.25;100.00;99857.23;1734187;82;21042;-67
2022/09/22 03:19:41;;;;;;;12.93;9.55;;;;;;;8.26;100.00;99855.47;1734350;82;21053;-65
2022/09/22 03:22:07;;;;;;;13.18;9.65;;;;;;;8.27;100.00;99854.58;1734053;82;22094;-67
2022/09/22 03:24:34;;;;;;;15.68;8.30;;;;;;;8.29;100.00;99850.14;1734001;82;21037;-67
2022/09/22 03:27:01;;;;;;;9.85;8.05;;;;;;;8.32;100.00;99850.88;1734108;82;21078;-65
2022/09/22 03:29:28;;;;;;;13.90;9.08;;;;;;;8.32;100.00;99845.63;1734127;82;22141;-66
2022/09/22 03:31:55;;;;;;;12.15;8.43;;;;;;;8.34;100.00;99853.47;1734286;82;21050;-66
2022/09/22 03:34:21;;;;;;;17.95;8.63;;;;;;;8.36;100.00;99846.41;1734384;82;21253;-66
2022/09/22 03:36:48;;;;;;;18.70;10.35;;;;;;;8.37;100.00;99850.73;1733896;82;21018;-66
2022/09/22 03:39:16;;;;;;;13.50;9.23;;;;;;;8.40;100.00;99853.31;1733675;82;21042;-66
2022/09/22 03:41:42;;;;;;;10.38;8.70;;;;;;;8.39;100.00;99848.92;1734394;82;21634;-66
2022/09/22 03:44:09;;;;;;;13.70;9.50;;;;;;;8.40;100.00;99845.44;1734419;81;21614;-66
2022/09/22 03:46:36;;;;;;;20.30;11.60;;;;;;;8.40;100.00;99853.31;1734377;82;21140;-66
2022/09/22 03:49:03;;;;;;;15.98;10.72;;;;;;;8.42;100.00;99854.13;1734040;82;21129;-68
2022/09/22 03:51:33;;;;;;;13.83;10.25;;;;;;;8.43;100.00;99858.45;1734362;82;21023;-67
2022/09/22 03:54:00;;;;;;;15.78;10.20;;;;;;;8.44;100.00;99862.77;1734027;82;21057;-67
2022/09/22 03:56:26;;;;;;;15.38;9.13;;;;;;;8.47;100.00;99856.59;1706660;82;21348;-66
2022/09/22 03:58:53;;;;;;;13.90;9.35;;;;;;;8.49;100.00;99867.45;1704793;84;21147;-66
2022/09/22 04:01:19;;;;;;;14.38;9.18;;;;;;;8.49;100.00;99863.51;1705073;82;21038;-66
2022/09/22 04:03:46;;;;;;;11.48;9.05;;;;;;;8.49;100.00;99863.51;1704898;83;21521;-66
2022/09/22 04:06:13;;;;;;;13.03;9.33;;;;;;;8.51;100.00;99872.63;1704878;84;21030;-67
2022/09/22 04:08:40;;;;;;;13.15;9.10;;;;;;;8.51;100.00;99873.50;1704798;84;21081;-67
2022/09/22 04:11:07;;;;;;;12.70;8.73;;;;;;;8.51;100.00;99871.31;1708977;83;21061;-67
2022/09/22 04:13:34;;;;;;;15.63;10.20;;;;;;;8.51;100.00;99869.57;1718481;83;21037;-66
2022/09/22 04:16:02;;;;;;;11.25;8.60;;;;;;;8.49;100.00;99867.45;1718425;83;21116;-68
2022/09/22 04:18:28;;;;;;;14.58;10.40;;;;;;;8.51;100.00;99868.69;1718479;83;21054;-67
2022/09/22 04:20:57;;;;;;;12.58;8.75;;;;;;;8.52;100.00;99873.89;1718499;83;21540;-67
2022/09/22 04:23:25;;;;;;;13.70;10.45;;;;;;;8.53;100.00;99874.28;1718685;83;21085;-66
2022/09/22 04:25:52;;;;;;;14.80;9.63;;;;;;;8.55;100.00;99879.03;1718346;83;21045;-66
2022/09/22 04:28:19;;;;;;;11.85;8.88;;;;;;;8.57;100.00;99878.99;1718461;83;21105;-67
2022/09/22 04:30:46;;;;;;;10.85;7.70;;;;;;;8.58;100.00;99876.33;1718490;83;21101;-67
2022/09/22 04:33:13;;;;;;;17.75;8.98;;;;;;;8.61;100.00;99873.59;1718490;83;21097;-69
2022/09/22 04:35:39;;;;;;;13.32;9.10;;;;;;;8.64;100.00;99875.72;1718346;83;21062;-67
2022/09/22 04:38:06;;;;;;;14.55;10.10;;;;;;;8.64;100.00;99879.66;1718490;83;21125;-67
2022/09/22 04:40:32;;;;;;;14.38;9.95;;;;;;;8.60;100.00;99877.14;1718429;83;21060;-66
2022/09/22 04:42:59;;;;;;;16.05;11.20;;;;;;;8.60;100.00;99878.45;1718469;83;21033;-67
2022/09/22 04:45:25;;;;;;;12.85;9.70;;;;;;;8.59;100.00;99883.28;1718417;83;21072;-67
2022/09/22 04:47:52;;;;;;;15.28;10.95;;;;;;;8.57;100.00;99887.72;1718182;83;21290;-67
2022/09/22 04:50:20;;;;;;;18.90;12.20;;;;;;;8.54;100.00;99881.27;1718479;83;21106;-66
2022/09/22 04:52:49;;;;;;;15.98;11.53;;;;;;;8.54;100.00;99877.33;1718193;83;21057;-66
2022/09/22 04:55:17;;;;;;;19.48;10.78;;;;;;;8.55;100.00;99883.43;1717566;83;21157;-66
2022/09/22 04:57:55;;;;;;;12.95;10.32;;;;;;;8.57;100.00;99884.24;1716735;83;21061;-68
2022/09/22 05:00:24;;;;;;;13.93;10.58;;;;;;;8.58;100.00;99877.64;1716982;83;21913;-68
2022/09/22 05:02:51;;;;;;;11.33;9.20;;;;;;;8.59;100.00;99886.37;1717090;83;21084;-66
2022/09/22 05:05:19;;;;;;;10.93;8.90;;;;;;;8.64;100.00;99888.38;1717038;83;22157;-67
2022/09/22 05:07:47;;;;;;;13.03;10.28;;;;;;;8.66;100.00;99886.56;1716572;83;21499;-67
2022/09/22 05:10:18;;;;;;;14.25;10.50;;;;;;;8.70;100.00;99888.65;1717126;83;21672;-67
2022/09/22 05:12:46;;;;;;;13.75;9.53;;;;;;;8.73;100.00;99892.47;1705201;83;21051;-68
2022/09/22 05:15:13;;;;;;;15.40;10.58;;;;;;;8.77;100.00;99891.02;1702951;84;21074;-67
2022/09/22 05:17:50;;;;;;;16.82;10.75;;;;;;;8.81;100.00;99895.25;1703021;83;21566;-66
2022/09/22 05:20:16;;;;;;;16.07;10.98;;;;;;;8.82;100.00;99894.80;1703314;84;21105;-68
2022/09/22 05:22:43;;;;;;;13.62;10.58;;;;;;;8.85;100.00;99897.31;1703283;84;21121;-67
2022/09/22 05:25:54;;;;;;;13.03;8.88;;;;;;;8.81;100.00;99899.63;1796608;79;28756;-66
2022/09/22 05:28:23;;;;;;;13.38;9.45;;;;;;;8.76;100.00;99900.23;1756508;81;21080;-70
2022/09/22 05:30:50;;;;;;;11.38;8.98;;;;;;;8.77;100.00;99898.03;1756205;81;21758;-66
2022/09/22 05:33:16;;;;;;;12.88;10.40;;;;;;;8.81;100.00;99898.31;1754579;81;21134;-68
2022/09/22 05:35:43;;;;;;;14.50;9.88;;;;;;;8.84;100.00;99895.61;1747310;82;21041;-66
2022/09/22 05:38:10;;;;;;;15.38;9.15;;;;;;;8.89;100.00;99890.20;1748527;82;21085;-67
2022/09/22 05:40:36;;;;;;;12.50;9.38;;;;;;;8.94;100.00;99899.63;1748338;82;21578;-68
2022/09/22 05:43:02;;;;;;;12.85;8.90;;;;;;;8.97;100.00;99894.28;1748442;82;21107;-66
2022/09/22 05:45:29;;;;;;;14.90;9.88;;;;;;;9.00;100.00;99898.11;1748160;82;20962;-68
2022/09/22 05:47:55;;;;;;;13.65;10.38;;;;;;;9.01;100.00;99898.50;1748127;82;21031;-67
2022/09/22 05:50:22;;;;;;;15.10;10.25;;;;;;;9.05;100.00;99906.30;1748121;82;21229;-67
2022/09/22 05:52:49;;;;;;;11.53;9.65;;;;;;;9.06;100.00;99908.00;1748182;82;21112;-68
2022/09/22 05:55:16;;;;;;;17.52;10.60;;;;;;;9.08;100.00;99902.23;1748078;82;21320;-67
2022/09/22 05:57:42;;;;;;;18.10;10.05;;;;;;;9.08;100.00;99900.92;1748259;82;21096;-66
2022/09/22 06:00:11;;;;;;;12.80;9.85;;;;;;;9.06;100.00;99903.59;1747998;82;21045;-67
2022/09/22 06:02:43;;;;;;;14.25;10.20;;;;;;;9.05;100.00;99906.30;1748337;82;21509;-67
2022/09/22 06:05:10;;;;;;;16.70;10.35;;;;;;;9.05;100.00;99906.30;1747908;82;21010;-67
2022/09/22 06:07:36;;;;;;;15.00;10.38;;;;;;;9.05;100.00;99901.04;1748143;82;21239;-67
2022/09/22 06:10:06;;;;;;;15.43;9.73;;;;;;;9.07;100.00;99901.85;1748160;82;21572;-67
2022/09/22 06:12:34;;;;;;;12.75;9.58;;;;;;;9.10;100.00;99909.61;1747950;82;21096;-69
2022/09/22 06:15:04;;;;;;;14.47;9.03;;;;;;;9.16;100.00;99918.61;1747924;82;21090;-67
2022/09/22 06:17:31;;;;;;;10.00;7.80;;;;;;;9.21;100.00;99911.42;1748323;82;21017;-68
2022/09/22 06:19:59;;;;;;;11.83;8.50;;;;;;;9.25;100.00;99919.60;1748145;82;21216;-67
2022/09/22 06:22:26;;;;;;;9.58;8.10;;;;;;;9.27;100.00;99917.78;1747968;81;21038;-68
2022/09/22 06:24:53;;;;;;;9.95;7.95;;;;;;;9.30;100.00;99918.98;1742060;81;21045;-69
2022/09/22 06:27:19;;;;;;;9.73;7.90;;;;;;;9.34;100.00;99913.14;1734782;82;21136;-68
2022/09/22 06:29:46;;;;;;;9.75;7.72;;;;;;;9.40;100.00;99912.47;1734635;82;21045;-68
2022/09/22 06:32:12;;;;;;;13.53;9.08;;;;;;;9.45;100.00;99910.99;1734679;82;21892;-68
2022/09/22 06:34:39;;;;;;;12.33;9.13;;;;;;;9.50;100.00;99914.77;1734576;82;20998;-67
2022/09/22 06:37:10;;;;;;;11.70;7.72;;;;;;;9.50;100.00;99918.71;1734319;82;21077;-68
2022/09/22 06:39:36;;;;;;;9.03;7.72;;;;;;;9.52;100.00;99920.37;1734505;82;21503;-66
2022/09/22 06:42:05;;;;;;;10.65;7.10;;;;;;;9.52;100.00;99916.89;1734294;82;21053;-67
2022/09/22 06:44:32;;;;;;;10.40;8.28;;;;;;;9.51;100.00;99922.61;1734141;82;21794;-68
2022/09/22 06:47:04;;;;;;;10.48;8.20;;;;;;;9.52;100.00;99922.14;1734115;82;21031;-66
2022/09/22 06:49:30;;;;;;;10.08;7.83;;;;;;;9.56;100.00;99925.08;1734121;82;21037;-68
2022/09/22 06:51:57;;;;;;;10.48;7.87;;;;;;;9.57;100.00;99920.20;1734440;82;21094;-66
2022/09/22 06:54:24;;;;;;;10.72;8.18;;;;;;;9.62;100.00;99928.80;1710311;82;21101;-66
2022/09/22 06:56:50;;;;;;;11.60;7.97;;;;;;;9.66;100.00;99930.39;1705194;84;21815;-68
2022/09/22 06:59:18;;;;;;;11.00;8.08;;;;;;;9.70;100.00;99930.68;1704715;84;21118;-67
2022/09/22 07:01:47;;;;;;;10.63;7.15;;;;;;;9.76;100.00;99926.52;1705179;84;21098;-68
2022/09/22 07:04:13;;;;;;;7.83;6.62;;;;;;;9.85;100.00;99930.59;1704565;83;21057;-68
2022/09/22 07:06:41;;;;;;;8.80;6.87;;;;;;;9.95;100.00;99928.47;1704999;84;21790;-67
2022/09/22 07:09:11;;;;;;;10.15;7.40;;;;;;;10.01;100.00;99924.30;1705064;83;21011;-68
2022/09/22 07:11:39;;;;;;;8.73;6.30;;;;;;;10.11;100.00;99934.86;1704858;84;21007;-67
2022/09/22 07:14:07;;;;;;;8.73;7.30;;;;;;;10.22;100.00;99928.73;1704983;84;21061;-71
2022/09/22 07:16:34;;;;;;;7.97;6.17;;;;;;;10.36;100.00;99933.95;1704860;84;21097;-66
2022/09/22 07:19:04;;;;;;;8.58;6.70;;;;;;;10.47;100.00;99931.76;1704878;84;21069;-67
2022/09/22 07:21:35;;;;;;;7.50;5.78;;;;;;;10.60;100.00;99929.01;1704734;84;21301;-68
2022/09/22 07:23:59;;;;;;;8.35;6.53;;;;;;;10.81;100.00;99929.05;1704902;83;21026;-66
2022/09/22 07:26:29;;;;;;;8.13;5.72;;;;;;;10.98;100.00;99941.08;1717594;83;21525;-67
2022/09/22 07:28:58;;;;;;;8.35;6.42;;;;;;;11.12;100.00;99933.45;1718820;83;21264;-68
2022/09/22 07:31:26;;;;;;;8.05;6.25;;;;;;;11.31;100.00;99934.83;1718023;83;21617;-68
2022/09/22 07:33:53;;;;;;;11.20;5.90;;;;;;;11.53;100.00;99934.77;1718358;83;21084;-66
2022/09/22 07:36:22;;;;;;;8.18;5.87;;;;;;;11.83;100.00;99934.32;1718167;83;21029;-66
2022/09/22 07:38:52;;;;;;;6.75;5.35;;;;;;;12.06;100.00;99933.77;1718716;83;21045;-68
2022/09/22 07:41:29;;;;;;;6.72;5.83;;;;;;;12.25;100.00;99930.65;1718363;83;21057;-67
2022/09/22 07:46:29;;;;;;;7.37;4.83;;;;;;;12.59;100.00;99933.86;1669881;83;21139;-68
2022/09/22 07:48:55;;;;;;;6.85;4.62;;;;;;;12.75;100.00;99931.33;1718425;83;21069;-68
2022/09/22 07:51:23;;;;;;;7.42;4.78;;;;;;;12.87;100.00;99927.22;1718149;83;21055;-68
2022/09/22 07:54:06;;;;;;;6.62;4.42;;;;;;;12.97;100.00;99927.61;1718225;83;21045;-67
2022/09/22 07:56:22;;;;;;;5.87;4.17;;;;;;;13.00;100.00;99927.48;1716352;83;21042;-67
2022/09/22 07:58:52;;;;;;;8.58;4.30;;;;;;;13.00;100.00;99931.44;1718226;83;22208;-67
2022/09/22 08:01:25;;;;;;;5.90;4.60;;;;;;;13.01;100.00;99925.20;1718360;83;21006;-67
2022/09/22 08:03:51;;;;;;;5.85;4.40;;;;;;;12.97;100.00;99921.84;1718509;83;21028;-67
2022/09/22 08:06:19;;;;;;;5.12;4.20;;;;;;;12.97;100.00;99918.36;1718315;83;21123;-67
2022/09/22 08:08:52;;;;;;;7.58;4.28;;;;;;;12.97;100.00;99915.72;1718576;83;21647;-67
2022/09/22 08:11:17;;;;;;;;;;;;;;;13.06;100.00;99919.22;1720657;83;21029;-67
2022/09/22 08:13:50;;;;;;;5.33;3.80;;;;;;;13.18;100.00;99916.41;1718205;83;20154;-67
2022/09/22 08:16:17;;;;;;;4.05;3.58;;;;;;;13.34;100.00;99913.86;1718171;83;21288;-68
2022/09/22 08:18:55;;;;;;;4.55;3.98;;;;;;;13.74;100.00;99913.11;1718268;83;21544;-70
2022/09/22 08:21:19;;;;;;;6.17;3.83;;;;;;;13.97;100.00;99916.69;1717694;83;21084;-68
2022/09/22 08:23:45;;;;;;;5.70;3.70;;;;;;;14.09;100.00;99915.63;1718477;83;21799;-68
2022/09/22 08:26:12;;;;;;;5.42;3.65;;;;;;;14.12;100.00;99918.10;1718034;83;21113;-66
2022/09/22 08:28:39;;;;;;;5.42;3.72;;;;;;;14.14;100.00;99917.08;1718412;83;21108;-69
2022/09/22 08:31:10;;;;;;;4.42;3.45;;;;;;;14.25;100.00;99919.14;1718115;83;21085;-68
2022/09/22 08:33:37;;;;;;;;;;;;;;;14.28;100.00;99913.66;1718314;83;21608;-68
2022/09/22 08:36:04;;;;;;;4.37;3.60;;;;;;;14.40;100.00;99917.41;1718314;83;21145;-68
2022/09/22 08:38:32;;;;;;;5.35;3.22;;;;;;;14.63;100.00;99914.37;1718384;83;21049;-68
2022/09/22 08:41:11;;;;;;;5.25;3.50;;;;;;;14.68;100.00;99914.11;1718233;83;21545;-71
2022/09/22 08:43:49;;;;;;;5.37;3.40;;;;;;;14.71;100.00;99916.57;1718180;83;21588;-68
2022/09/22 08:46:15;;;;;;;4.03;3.22;;;;;;;14.62;100.00;99916.62;1718162;83;21096;-67
2022/09/22 08:51:52;;;;;;;4.22;3.42;;;;;;;14.35;100.00;99925.62;1718023;83;22249;-68
2022/09/22 08:54:33;;;;;;;3.83;3.33;;;;;;;14.20;100.00;99917.22;1720226;82;21117;-68
2022/09/22 08:57:43;;;;;;;4.92;4.00;;;;;;;14.09;100.00;99922.25;1747865;82;21057;-68
2022/09/22 09:00:16;;;;;;;4.12;3.70;;;;;;;13.93;100.00;99919.11;1732506;82;21057;-68
2022/09/22 09:03:12;;;;;;;4.95;3.55;;;;;;;13.66;100.00;99925.87;1747899;82;21618;-67
2022/09/22 09:05:58;;;;;;;4.00;3.60;;;;;;;13.47;100.00;99922.88;1747557;82;21073;-68
2022/09/22 09:09:05;;;;;;;9.90;4.17;;;;;;;13.26;100.00;99930.58;1748237;82;21030;-66
2022/09/22 09:11:58;;;;;;;5.53;4.15;;;;;;;13.10;100.00;99923.42;1747974;82;21089;-67
2022/09/22 09:14:54;;;;;;;7.92;4.28;;;;;;;13.08;100.00;99930.57;1748010;82;21084;-67
2022/09/22 09:17:35;;;;;;;5.78;3.83;;;;;;;13.07;100.00;99930.20;1731593;82;21865;-68
2022/09/22 09:20:17;;;;;;;5.90;3.92;;;;;;;13.08;100.00;99927.92;1748073;82;21523;-67
2022/09/22 09:22:55;;;;;;;5.60;4.30;;;;;;;13.13;100.00;99927.22;1747759;82;21054;-67
2022/09/22 09:25:41;;;;;;;4.20;3.80;;;;;;;13.18;100.00;99926.55;1747960;81;21550;-68
2022/09/22 09:28:34;;;;;;;3.58;3.22;;;;;;;13.23;100.00;99926.31;1747488;82;21041;-67
2022/09/22 09:31:11;;;;;;;5.40;3.65;;;;;;;13.31;100.00;99926.78;1747899;82;21275;-69
2022/09/22 09:33:58;;;;;;;3.98;3.52;;;;;;;13.34;100.00;99926.65;1747853;82;21590;-67
2022/09/22 09:36:30;;;;;;;4.53;4.00;;;;;;;13.30;100.00;99926.89;1731126;82;21029;-68
2022/09/22 09:38:57;;;;;;;4.00;3.60;;;;;;;13.24;100.00;99929.33;1748384;82;22071;-67
2022/09/22 09:41:31;;;;;;;5.72;3.72;;;;;;;13.21;100.00;99924.20;1748024;82;21022;-68
2022/09/22 09:43:59;;;;;;;4.00;3.50;;;;;;;13.14;100.00;99930.27;1748393;82;21767;-68
2022/09/22 09:47:03;;;;;;;5.62;3.80;;;;;;;13.03;100.00;99930.42;1748043;82;21002;-69
2022/09/22 09:49:30;;;;;;;8.40;3.87;;;;;;;12.89;100.00;99929.80;1747802;81;21018;-68
2022/09/22 09:51:59;;;;;;;5.20;3.50;;;;;;;12.85;100.00;99929.55;1747893;82;21146;-68
2022/09/22 09:54:26;;;;;;;6.22;3.77;;;;;;;12.78;100.00;99932.48;1744973;82;21073;-69
2022/09/22 09:57:11;;;;;;;16.85;4.20;;;;;;;12.74;100.00;99934.88;1718096;83;21202;-68
2022/09/22 10:02:27;;;;;;;2.45;2.10;;;;;;;12.71;100.00;99935.05;1673503;83;21084;-68
2022/09/22 10:05:03;;;;;;;4.33;2.52;;;;;;;12.66;100.00;99933.57;1718308;83;21061;-68
2022/09/22 10:07:43;;;;;;;3.92;2.35;;;;;;;12.58;100.00;99936.56;1718211;83;21093;-68
2022/09/22 10:10:33;;;;;;;3.33;2.33;;;;;;;12.46;100.00;99934.52;1718533;83;21091;-68
2022/09/22 10:13:08;;;;;;;2.83;2.52;;;;;;;12.37;100.00;99939.30;1718445;83;21066;-68
2022/09/22 10:15:40;;;;;;;6.60;2.98;;;;;;;12.27;100.00;99941.16;1718459;83;21053;-68
2022/09/22 10:18:29;;;;;;;4.28;2.87;;;;;;;12.20;100.00;99937.94;1718350;83;21037;-67
2022/09/22 10:21:19;;;;;;;3.20;2.60;;;;;;;12.18;100.00;99938.47;1718511;83;21069;-67
2022/09/22 10:23:52;;;;;;;4.03;2.58;;;;;;;12.18;100.00;99946.39;1718507;83;21301;-67
2022/09/22 10:26:28;;;;;;;3.92;3.10;;;;;;;12.13;100.00;99943.11;1711539;83;21136;-68
2022/09/22 10:29:19;;;;;;;3.08;2.77;;;;;;;12.11;100.00;99939.69;1704933;84;21037;-67
2022/09/22 10:32:06;;;;;;;3.52;3.20;;;;;;;12.10;100.00;99951.16;1706238;82;21050;-68
2022/09/22 10:34:43;;;;;;;4.50;3.17;;;;;;;12.01;100.00;99947.18;1704756;84;21564;-69
2022/09/22 10:37:12;;;;;;;3.05;2.67;;;;;;;11.95;100.00;99952.26;1705252;84;21203;-69
2022/09/22 10:39:46;;;;;;;2.83;2.47;;;;;;;11.84;100.00;99955.81;1704828;84;22080;-66
2022/09/22 10:42:35;;;;;;;3.15;2.70;;;;;;;11.74;100.00;99957.16;1704888;84;21101;-68
2022/09/22 10:45:09;;;;;;;3.58;2.77;;;;;;;11.55;100.00;99950.06;1704754;84;21097;-69
2022/09/22 10:47:59;;;;;;;3.60;2.95;;;;;;;11.38;100.00;99950.39;1704737;84;21070;-68
2022/09/22 10:50:52;;;;;;;3.85;3.00;;;;;;;11.24;100.00;99951.84;1704850;84;21520;-68
2022/09/22 10:54:07;;;;;;;3.08;2.77;;;;;;;11.11;100.00;99954.15;1704817;84;21114;-69
2022/09/22 10:56:40;;;;;;;3.15;2.75;;;;;;;11.04;100.00;99956.65;1734042;82;21042;-69
2022/09/22 10:59:37;;;;;;;4.55;2.98;;;;;;;11.02;100.00;99952.34;1734084;82;21093;-67
2022/09/22 11:02:28;;;;;;;4.87;3.47;;;;;;;11.06;100.00;99946.88;1734076;82;21116;-69
2022/09/22 11:12:14;;;;;;;5.10;3.55;;;;;;;11.18;100.00;99938.94;1733684;82;21139;-68
2022/09/22 11:14:39;;;;;;;3.65;2.27;;;;;;;11.92;100.00;99920.73;1704797;84;21054;-69
2022/09/22 11:17:55;;;;;;;2.55;2.30;;;;;;;12.22;100.00;99918.92;1686029;84;21491;-68
2022/09/22 11:20:43;;;;;;;2.60;2.40;;;;;;;12.52;100.00;99921.03;1686555;84;21208;-68
2022/09/22 11:23:45;;;;;;;2.50;2.30;;;;;;;12.84;100.00;99923.42;1704446;84;21042;-68
2022/09/22 11:26:42;;;;;;;4.03;2.83;;;;;;;13.04;100.00;99929.01;1673810;83;21061;-68
2022/09/22 11:29:44;;;;;;;2.72;2.20;;;;;;;13.06;100.00;99919.22;1718304;83;21568;-67
2022/09/22 11:32:43;;;;;;;3.72;2.90;;;;;;;13.01;100.00;99923.89;1718455;83;21604;-68
2022/09/22 11:35:27;;;;;;;3.55;2.95;;;;;;;12.91;100.00;99923.50;1718417;83;21250;-69
2022/09/22 11:38:12;;;;;;;3.72;2.80;;;;;;;12.71;100.00;99922.31;1717370;83;21261;-69
2022/09/22 11:40:56;;;;;;;3.67;2.98;;;;;;;12.52;100.00;99928.95;1718617;83;21045;-68
2022/09/22 11:43:51;;;;;;;4.42;2.80;;;;;;;12.35;100.00;99917.42;1718601;82;21044;-67
2022/09/22 11:46:46;;;;;;;4.60;2.87;;;;;;;12.26;100.00;99923.14;1718431;83;21612;-69
2022/09/22 11:49:50;;;;;;;3.45;2.65;;;;;;;12.19;100.00;99919.05;1718664;83;21857;-68
2022/09/22 11:52:31;;;;;;;8.63;3.62;;;;;;;12.07;100.00;99914.35;1718400;83;21569;-69
2022/09/22 11:55:17;;;;;;;3.70;2.87;;;;;;;11.92;100.00;99913.30;1718405;83;21525;-66
2022/09/22 11:57:48;;;;;;;3.62;2.95;;;;;;;11.81;100.00;99919.02;1718425;83;21105;-69
2022/09/22 12:00:18;;;;;;;4.00;2.92;;;;;;;11.79;100.00;99920.87;1718642;83;21526;-67
2022/09/22 12:03:03;;;;;;;4.92;3.00;;;;;;;11.83;100.00;99922.91;1717474;83;21084;-68
2022/09/22 12:05:50;;;;;;;3.83;2.65;;;;;;;11.90;100.00;99921.27;1718642;83;21041;-68
2022/09/22 12:08:21;;;;;;;5.50;3.00;;;;;;;11.99;100.00;99914.72;1718320;83;22226;-67
2022/09/22 12:10:50;;;;;;;4.47;2.75;;;;;;;12.06;100.00;99913.97;1718574;83;21073;-68